sensor_id;sensor_type;location;lat;lon;timestamp;P1;durP1;ratioP1;P2;durP2;ratioP2
73940;SDS011;62294;48.554;10.202;2023-06-24T00:00:56;4.65;;;3.10;;
73940;SDS011;62294;48.554;10.202;2023-06-24T00:03:23;6.63;;;4.13;;
73940;SDS011;62294;48.554;10.202;2023-06-24T00:05:50;5.32;;;3.67;;
73940;SDS011;62294;48.554;10.202;2023-06-24T00:08:16;7.18;;;3.28;;
73940;SDS011;62294;48.554;10.202;2023-06-24T00:10:49;5.00;;;3.35;;
73940;SDS011;62294;48.554;10.202;2023-06-24T00:13:16;7.22;;;3.78;;
73940;SDS011;62294;48.554;10.202;2023-06-24T00:15:43;5.63;;;3.50;;
73940;SDS011;62294;48.554;10.202;2023-06-24T00:18:10;6.53;;;3.63;;
73940;SDS011;62294;48.554;10.202;2023-06-24T00:20:37;6.32;;;3.83;;
73940;SDS011;62294;48.554;10.202;2023-06-24T00:23:05;6.35;;;3.40;;
73940;SDS011;62294;48.554;10.202;2023-06-24T00:25:32;8.88;;;3.67;;
73940;SDS011;62294;48.554;10.202;2023-06-24T00:27:59;6.30;;;3.42;;
73940;SDS011;62294;48.554;10.202;2023-06-24T00:30:26;8.40;;;3.60;;
73940;SDS011;62294;48.554;10.202;2023-06-24T00:32:53;5.47;;;3.53;;
73940;SDS011;62294;48.554;10.202;2023-06-24T00:35:20;8.55;;;3.85;;
73940;SDS011;62294;48.554;10.202;2023-06-24T00:37:46;7.63;;;3.72;;
73940;SDS011;62294;48.554;10.202;2023-06-24T00:40:13;7.13;;;3.53;;
73940;SDS011;62294;48.554;10.202;2023-06-24T00:42:44;6.15;;;3.83;;
73940;SDS011;62294;48.554;10.202;2023-06-24T00:45:11;8.02;;;3.80;;
73940;SDS011;62294;48.554;10.202;2023-06-24T00:47:39;5.95;;;3.50;;
73940;SDS011;62294;48.554;10.202;2023-06-24T00:50:06;5.88;;;4.13;;
73940;SDS011;62294;48.554;10.202;2023-06-24T00:52:33;6.47;;;3.80;;
73940;SDS011;62294;48.554;10.202;2023-06-24T00:55:03;5.80;;;3.58;;
73940;SDS011;62294;48.554;10.202;2023-06-24T00:57:30;5.88;;;3.63;;
73940;SDS011;62294;48.554;10.202;2023-06-24T00:59:57;5.47;;;3.78;;
73940;SDS011;62294;48.554;10.202;2023-06-24T01:02:26;8.80;;;3.90;;
73940;SDS011;62294;48.554;10.202;2023-06-24T01:04:54;7.22;;;3.80;;
73940;SDS011;62294;48.554;10.202;2023-06-24T01:07:23;5.63;;;3.60;;
73940;SDS011;62294;48.554;10.202;2023-06-24T01:09:50;5.82;;;3.55;;
73940;SDS011;62294;48.554;10.202;2023-06-24T01:12:17;6.97;;;3.70;;
73940;SDS011;62294;48.554;10.202;2023-06-24T01:14:43;7.45;;;4.30;;
73940;SDS011;62294;48.554;10.202;2023-06-24T01:17:31;5.47;;;3.70;;
73940;SDS011;62294;48.554;10.202;2023-06-24T01:29:07;6.80;;;4.03;;
73940;SDS011;62294;48.554;10.202;2023-06-24T01:34:25;5.47;;;3.30;;
73940;SDS011;62294;48.554;10.202;2023-06-24T01:39:31;5.85;;;3.58;;
73940;SDS011;62294;48.554;10.202;2023-06-24T01:42:10;6.22;;;4.13;;
73940;SDS011;62294;48.554;10.202;2023-06-24T01:44:40;6.90;;;4.30;;
73940;SDS011;62294;48.554;10.202;2023-06-24T01:47:09;9.07;;;3.85;;
73940;SDS011;62294;48.554;10.202;2023-06-24T01:49:38;7.72;;;4.53;;
73940;SDS011;62294;48.554;10.202;2023-06-24T01:52:08;7.05;;;4.38;;
73940;SDS011;62294;48.554;10.202;2023-06-24T01:54:37;7.10;;;3.55;;
73940;SDS011;62294;48.554;10.202;2023-06-24T01:57:06;7.22;;;4.22;;
73940;SDS011;62294;48.554;10.202;2023-06-24T01:59:35;8.38;;;4.53;;
73940;SDS011;62294;48.554;10.202;2023-06-24T02:02:07;7.30;;;4.72;;
73940;SDS011;62294;48.554;10.202;2023-06-24T02:04:34;7.05;;;4.35;;
73940;SDS011;62294;48.554;10.202;2023-06-24T02:07:02;8.77;;;4.45;;
73940;SDS011;62294;48.554;10.202;2023-06-24T02:09:30;7.63;;;4.07;;
73940;SDS011;62294;48.554;10.202;2023-06-24T02:12:00;6.30;;;4.18;;
73940;SDS011;62294;48.554;10.202;2023-06-24T02:14:29;6.22;;;3.88;;
73940;SDS011;62294;48.554;10.202;2023-06-24T02:16:56;7.93;;;4.10;;
73940;SDS011;62294;48.554;10.202;2023-06-24T02:19:27;7.15;;;3.80;;
73940;SDS011;62294;48.554;10.202;2023-06-24T02:21:56;8.65;;;4.15;;
73940;SDS011;62294;48.554;10.202;2023-06-24T02:24:25;7.80;;;4.65;;
73940;SDS011;62294;48.554;10.202;2023-06-24T02:26:54;9.43;;;4.13;;
73940;SDS011;62294;48.554;10.202;2023-06-24T02:29:24;7.85;;;4.68;;
73940;SDS011;62294;48.554;10.202;2023-06-24T02:31:53;7.65;;;4.47;;
73940;SDS011;62294;48.554;10.202;2023-06-24T02:34:22;10.65;;;4.57;;
73940;SDS011;62294;48.554;10.202;2023-06-24T02:36:50;7.47;;;3.95;;
73940;SDS011;62294;48.554;10.202;2023-06-24T02:39:16;7.50;;;4.25;;
73940;SDS011;62294;48.554;10.202;2023-06-24T02:41:44;7.80;;;5.05;;
73940;SDS011;62294;48.554;10.202;2023-06-24T02:44:11;7.13;;;4.35;;
73940;SDS011;62294;48.554;10.202;2023-06-24T02:46:38;7.07;;;4.40;;
73940;SDS011;62294;48.554;10.202;2023-06-24T02:49:07;7.30;;;3.95;;
73940;SDS011;62294;48.554;10.202;2023-06-24T02:51:36;6.80;;;4.13;;
73940;SDS011;62294;48.554;10.202;2023-06-24T02:54:05;7.68;;;3.83;;
73940;SDS011;62294;48.554;10.202;2023-06-24T02:56:32;9.77;;;4.53;;
73940;SDS011;62294;48.554;10.202;2023-06-24T02:58:59;7.47;;;4.15;;
73940;SDS011;62294;48.554;10.202;2023-06-24T03:01:27;7.40;;;4.50;;
73940;SDS011;62294;48.554;10.202;2023-06-24T03:03:55;9.30;;;4.32;;
73940;SDS011;62294;48.554;10.202;2023-06-24T03:06:22;7.30;;;4.50;;
73940;SDS011;62294;48.554;10.202;2023-06-24T03:08:50;7.03;;;4.68;;
73940;SDS011;62294;48.554;10.202;2023-06-24T03:11:17;8.88;;;5.25;;
73940;SDS011;62294;48.554;10.202;2023-06-24T03:13:43;8.52;;;4.68;;
73940;SDS011;62294;48.554;10.202;2023-06-24T03:16:10;7.32;;;4.72;;
73940;SDS011;62294;48.554;10.202;2023-06-24T03:18:41;8.27;;;5.13;;
73940;SDS011;62294;48.554;10.202;2023-06-24T03:21:11;8.23;;;4.65;;
73940;SDS011;62294;48.554;10.202;2023-06-24T03:23:38;6.90;;;4.82;;
73940;SDS011;62294;48.554;10.202;2023-06-24T03:26:06;8.05;;;4.53;;
73940;SDS011;62294;48.554;10.202;2023-06-24T03:28:33;7.20;;;4.18;;
73940;SDS011;62294;48.554;10.202;2023-06-24T03:31:01;6.28;;;4.60;;
73940;SDS011;62294;48.554;10.202;2023-06-24T03:33:27;6.20;;;4.50;;
73940;SDS011;62294;48.554;10.202;2023-06-24T03:35:53;9.60;;;4.90;;
73940;SDS011;62294;48.554;10.202;2023-06-24T03:38:21;8.13;;;4.80;;
73940;SDS011;62294;48.554;10.202;2023-06-24T03:40:47;7.63;;;4.88;;
73940;SDS011;62294;48.554;10.202;2023-06-24T03:43:14;6.70;;;4.97;;
73940;SDS011;62294;48.554;10.202;2023-06-24T03:45:41;6.85;;;4.32;;
73940;SDS011;62294;48.554;10.202;2023-06-24T03:48:08;10.68;;;5.00;;
73940;SDS011;62294;48.554;10.202;2023-06-24T03:50:34;7.97;;;4.85;;
73940;SDS011;62294;48.554;10.202;2023-06-24T03:53:02;8.07;;;5.28;;
73940;SDS011;62294;48.554;10.202;2023-06-24T03:55:28;6.85;;;4.70;;
73940;SDS011;62294;48.554;10.202;2023-06-24T03:57:55;8.70;;;4.97;;
73940;SDS011;62294;48.554;10.202;2023-06-24T04:00:22;8.50;;;5.25;;
73940;SDS011;62294;48.554;10.202;2023-06-24T04:02:49;7.63;;;4.75;;
73940;SDS011;62294;48.554;10.202;2023-06-24T04:05:15;9.48;;;4.97;;
73940;SDS011;62294;48.554;10.202;2023-06-24T04:07:42;9.05;;;4.95;;
73940;SDS011;62294;48.554;10.202;2023-06-24T04:10:13;7.68;;;5.03;;
73940;SDS011;62294;48.554;10.202;2023-06-24T04:12:40;7.60;;;5.13;;
73940;SDS011;62294;48.554;10.202;2023-06-24T04:15:06;7.78;;;4.68;;
73940;SDS011;62294;48.554;10.202;2023-06-24T04:17:34;7.20;;;4.70;;
73940;SDS011;62294;48.554;10.202;2023-06-24T04:20:00;8.40;;;5.10;;
73940;SDS011;62294;48.554;10.202;2023-06-24T04:22:29;8.65;;;4.80;;
73940;SDS011;62294;48.554;10.202;2023-06-24T04:24:56;9.63;;;5.00;;
73940;SDS011;62294;48.554;10.202;2023-06-24T04:27:22;7.95;;;5.05;;
73940;SDS011;62294;48.554;10.202;2023-06-24T04:29:50;9.05;;;5.38;;
73940;SDS011;62294;48.554;10.202;2023-06-24T04:32:16;8.70;;;5.32;;
73940;SDS011;62294;48.554;10.202;2023-06-24T04:34:43;6.50;;;4.63;;
73940;SDS011;62294;48.554;10.202;2023-06-24T04:37:09;9.13;;;5.30;;
73940;SDS011;62294;48.554;10.202;2023-06-24T04:39:36;8.18;;;5.28;;
73940;SDS011;62294;48.554;10.202;2023-06-24T04:42:03;8.85;;;5.82;;
73940;SDS011;62294;48.554;10.202;2023-06-24T04:44:30;10.48;;;5.50;;
73940;SDS011;62294;48.554;10.202;2023-06-24T04:46:56;9.15;;;5.32;;
73940;SDS011;62294;48.554;10.202;2023-06-24T04:49:23;12.18;;;5.85;;
73940;SDS011;62294;48.554;10.202;2023-06-24T04:51:50;8.70;;;5.05;;
73940;SDS011;62294;48.554;10.202;2023-06-24T04:54:16;9.38;;;5.80;;
73940;SDS011;62294;48.554;10.202;2023-06-24T04:56:44;8.55;;;5.30;;
73940;SDS011;62294;48.554;10.202;2023-06-24T04:59:15;7.82;;;5.15;;
73940;SDS011;62294;48.554;10.202;2023-06-24T05:01:41;8.95;;;5.43;;
73940;SDS011;62294;48.554;10.202;2023-06-24T05:04:08;8.88;;;5.55;;
73940;SDS011;62294;48.554;10.202;2023-06-24T05:06:34;7.47;;;4.82;;
73940;SDS011;62294;48.554;10.202;2023-06-24T05:09:01;8.10;;;5.28;;
73940;SDS011;62294;48.554;10.202;2023-06-24T05:11:28;7.13;;;4.95;;
73940;SDS011;62294;48.554;10.202;2023-06-24T05:13:55;7.07;;;4.90;;
73940;SDS011;62294;48.554;10.202;2023-06-24T05:16:22;9.63;;;5.30;;
73940;SDS011;62294;48.554;10.202;2023-06-24T05:18:50;8.65;;;5.28;;
73940;SDS011;62294;48.554;10.202;2023-06-24T05:21:17;8.20;;;4.55;;
73940;SDS011;62294;48.554;10.202;2023-06-24T05:23:43;8.80;;;5.55;;
73940;SDS011;62294;48.554;10.202;2023-06-24T05:26:10;6.82;;;4.40;;
73940;SDS011;62294;48.554;10.202;2023-06-24T05:28:37;8.20;;;5.82;;
73940;SDS011;62294;48.554;10.202;2023-06-24T05:31:04;8.52;;;4.97;;
73940;SDS011;62294;48.554;10.202;2023-06-24T05:33:31;8.82;;;4.68;;
73940;SDS011;62294;48.554;10.202;2023-06-24T05:35:58;6.68;;;4.50;;
73940;SDS011;62294;48.554;10.202;2023-06-24T05:38:24;8.00;;;4.38;;
73940;SDS011;62294;48.554;10.202;2023-06-24T05:40:51;7.93;;;3.78;;
73940;SDS011;62294;48.554;10.202;2023-06-24T05:43:18;7.00;;;4.25;;
73940;SDS011;62294;48.554;10.202;2023-06-24T05:45:44;6.30;;;3.70;;
73940;SDS011;62294;48.554;10.202;2023-06-24T05:48:11;6.15;;;3.42;;
73940;SDS011;62294;48.554;10.202;2023-06-24T05:50:37;4.93;;;3.42;;
73940;SDS011;62294;48.554;10.202;2023-06-24T05:53:04;5.20;;;3.80;;
73940;SDS011;62294;48.554;10.202;2023-06-24T05:55:31;5.75;;;3.30;;
73940;SDS011;62294;48.554;10.202;2023-06-24T05:57:57;6.82;;;3.97;;
73940;SDS011;62294;48.554;10.202;2023-06-24T06:00:24;6.65;;;4.15;;
73940;SDS011;62294;48.554;10.202;2023-06-24T06:02:51;5.90;;;3.60;;
73940;SDS011;62294;48.554;10.202;2023-06-24T06:05:18;6.45;;;3.90;;
73940;SDS011;62294;48.554;10.202;2023-06-24T06:07:45;5.22;;;3.40;;
73940;SDS011;62294;48.554;10.202;2023-06-24T06:10:11;4.88;;;3.33;;
73940;SDS011;62294;48.554;10.202;2023-06-24T06:12:38;6.18;;;3.30;;
73940;SDS011;62294;48.554;10.202;2023-06-24T06:15:05;5.13;;;3.13;;
73940;SDS011;62294;48.554;10.202;2023-06-24T06:17:32;6.15;;;3.30;;
73940;SDS011;62294;48.554;10.202;2023-06-24T06:19:59;5.53;;;3.65;;
73940;SDS011;62294;48.554;10.202;2023-06-24T06:22:25;6.38;;;3.38;;
73940;SDS011;62294;48.554;10.202;2023-06-24T06:24:52;8.68;;;3.38;;
73940;SDS011;62294;48.554;10.202;2023-06-24T06:27:19;5.07;;;3.10;;
73940;SDS011;62294;48.554;10.202;2023-06-24T06:29:46;5.25;;;2.85;;
73940;SDS011;62294;48.554;10.202;2023-06-24T06:32:12;4.97;;;2.72;;
73940;SDS011;62294;48.554;10.202;2023-06-24T06:34:39;5.75;;;3.08;;
73940;SDS011;62294;48.554;10.202;2023-06-24T06:37:05;3.70;;;2.70;;
73940;SDS011;62294;48.554;10.202;2023-06-24T06:39:32;5.45;;;2.92;;
73940;SDS011;62294;48.554;10.202;2023-06-24T06:41:59;4.93;;;2.80;;
73940;SDS011;62294;48.554;10.202;2023-06-24T06:44:25;8.98;;;3.28;;
73940;SDS011;62294;48.554;10.202;2023-06-24T06:46:52;4.00;;;2.90;;
73940;SDS011;62294;48.554;10.202;2023-06-24T06:49:19;4.55;;;2.78;;
73940;SDS011;62294;48.554;10.202;2023-06-24T06:51:45;4.82;;;3.00;;
73940;SDS011;62294;48.554;10.202;2023-06-24T06:54:11;5.47;;;3.22;;
73940;SDS011;62294;48.554;10.202;2023-06-24T06:56:38;4.15;;;2.72;;
73940;SDS011;62294;48.554;10.202;2023-06-24T06:59:05;5.07;;;2.90;;
73940;SDS011;62294;48.554;10.202;2023-06-24T07:01:32;5.57;;;3.33;;
73940;SDS011;62294;48.554;10.202;2023-06-24T07:03:59;3.90;;;2.72;;
73940;SDS011;62294;48.554;10.202;2023-06-24T07:06:25;5.03;;;3.40;;
73940;SDS011;62294;48.554;10.202;2023-06-24T07:08:53;4.35;;;3.20;;
73940;SDS011;62294;48.554;10.202;2023-06-24T07:11:20;6.68;;;2.90;;
73940;SDS011;62294;48.554;10.202;2023-06-24T07:13:46;9.15;;;3.45;;
73940;SDS011;62294;48.554;10.202;2023-06-24T07:16:13;4.60;;;2.90;;
73940;SDS011;62294;48.554;10.202;2023-06-24T07:18:39;4.78;;;2.92;;
73940;SDS011;62294;48.554;10.202;2023-06-24T07:21:06;5.45;;;2.80;;
73940;SDS011;62294;48.554;10.202;2023-06-24T07:23:33;4.78;;;2.80;;
73940;SDS011;62294;48.554;10.202;2023-06-24T07:25:59;4.68;;;2.95;;
73940;SDS011;62294;48.554;10.202;2023-06-24T07:28:29;4.10;;;2.72;;
73940;SDS011;62294;48.554;10.202;2023-06-24T07:30:56;4.15;;;2.78;;
73940;SDS011;62294;48.554;10.202;2023-06-24T07:33:23;4.57;;;3.47;;
73940;SDS011;62294;48.554;10.202;2023-06-24T07:35:49;5.60;;;3.22;;
73940;SDS011;62294;48.554;10.202;2023-06-24T07:38:16;4.15;;;2.65;;
73940;SDS011;62294;48.554;10.202;2023-06-24T07:40:43;5.28;;;3.08;;
73940;SDS011;62294;48.554;10.202;2023-06-24T07:43:09;5.03;;;2.80;;
73940;SDS011;62294;48.554;10.202;2023-06-24T07:45:36;6.50;;;2.90;;
73940;SDS011;62294;48.554;10.202;2023-06-24T07:48:03;4.85;;;2.80;;
73940;SDS011;62294;48.554;10.202;2023-06-24T07:50:31;4.95;;;2.80;;
73940;SDS011;62294;48.554;10.202;2023-06-24T07:52:58;3.95;;;2.75;;
73940;SDS011;62294;48.554;10.202;2023-06-24T07:55:24;6.43;;;3.55;;
73940;SDS011;62294;48.554;10.202;2023-06-24T07:57:50;3.88;;;2.58;;
73940;SDS011;62294;48.554;10.202;2023-06-24T08:00:17;4.68;;;3.10;;
73940;SDS011;62294;48.554;10.202;2023-06-24T08:02:44;7.78;;;4.00;;
73940;SDS011;62294;48.554;10.202;2023-06-24T08:05:11;4.53;;;3.22;;
73940;SDS011;62294;48.554;10.202;2023-06-24T08:07:37;4.85;;;3.00;;
73940;SDS011;62294;48.554;10.202;2023-06-24T08:10:05;5.18;;;2.90;;
73940;SDS011;62294;48.554;10.202;2023-06-24T08:12:32;4.07;;;2.78;;
73940;SDS011;62294;48.554;10.202;2023-06-24T08:14:59;6.53;;;3.33;;
73940;SDS011;62294;48.554;10.202;2023-06-24T08:17:26;5.43;;;3.17;;
73940;SDS011;62294;48.554;10.202;2023-06-24T08:19:52;6.07;;;3.50;;
73940;SDS011;62294;48.554;10.202;2023-06-24T08:22:19;5.07;;;3.35;;
73940;SDS011;62294;48.554;10.202;2023-06-24T08:24:46;5.53;;;3.28;;
73940;SDS011;62294;48.554;10.202;2023-06-24T08:27:12;5.13;;;3.20;;
73940;SDS011;62294;48.554;10.202;2023-06-24T08:29:38;4.95;;;3.10;;
73940;SDS011;62294;48.554;10.202;2023-06-24T08:32:05;6.00;;;3.50;;
73940;SDS011;62294;48.554;10.202;2023-06-24T08:34:33;5.05;;;3.25;;
73940;SDS011;62294;48.554;10.202;2023-06-24T08:37:00;4.60;;;3.40;;
73940;SDS011;62294;48.554;10.202;2023-06-24T08:39:27;7.32;;;3.70;;
73940;SDS011;62294;48.554;10.202;2023-06-24T08:41:53;5.82;;;3.60;;
73940;SDS011;62294;48.554;10.202;2023-06-24T08:44:20;4.60;;;3.70;;
73940;SDS011;62294;48.554;10.202;2023-06-24T08:46:47;5.30;;;2.85;;
73940;SDS011;62294;48.554;10.202;2023-06-24T08:49:17;5.10;;;3.50;;
73940;SDS011;62294;48.554;10.202;2023-06-24T08:52:03;5.15;;;3.45;;
73940;SDS011;62294;48.554;10.202;2023-06-24T08:54:36;4.93;;;3.67;;
73940;SDS011;62294;48.554;10.202;2023-06-24T08:57:05;5.95;;;4.10;;
73940;SDS011;62294;48.554;10.202;2023-06-24T08:59:33;5.80;;;3.47;;
73940;SDS011;62294;48.554;10.202;2023-06-24T09:02:01;5.90;;;3.80;;
73940;SDS011;62294;48.554;10.202;2023-06-24T09:04:28;6.20;;;3.53;;
73940;SDS011;62294;48.554;10.202;2023-06-24T09:06:54;4.93;;;3.72;;
73940;SDS011;62294;48.554;10.202;2023-06-24T09:09:21;5.13;;;3.42;;
73940;SDS011;62294;48.554;10.202;2023-06-24T09:11:55;6.13;;;4.25;;
73940;SDS011;62294;48.554;10.202;2023-06-24T09:14:26;5.72;;;4.03;;
73940;SDS011;62294;48.554;10.202;2023-06-24T09:16:56;7.75;;;4.72;;
73940;SDS011;62294;48.554;10.202;2023-06-24T09:19:29;6.93;;;4.22;;
73940;SDS011;62294;48.554;10.202;2023-06-24T09:22:06;5.68;;;3.67;;
73940;SDS011;62294;48.554;10.202;2023-06-24T09:24:33;4.97;;;3.78;;
73940;SDS011;62294;48.554;10.202;2023-06-24T09:27:02;6.20;;;4.15;;
73940;SDS011;62294;48.554;10.202;2023-06-24T09:29:33;6.43;;;3.33;;
73940;SDS011;62294;48.554;10.202;2023-06-24T09:32:05;4.95;;;3.60;;
73940;SDS011;62294;48.554;10.202;2023-06-24T09:34:33;5.15;;;3.67;;
73940;SDS011;62294;48.554;10.202;2023-06-24T09:37:00;5.93;;;3.55;;
73940;SDS011;62294;48.554;10.202;2023-06-24T09:39:27;14.90;;;13.32;;
73940;SDS011;62294;48.554;10.202;2023-06-24T09:41:58;6.05;;;3.33;;
73940;SDS011;62294;48.554;10.202;2023-06-24T09:44:27;6.63;;;3.63;;
73940;SDS011;62294;48.554;10.202;2023-06-24T09:46:55;5.05;;;3.30;;
73940;SDS011;62294;48.554;10.202;2023-06-24T09:49:22;5.40;;;3.63;;
73940;SDS011;62294;48.554;10.202;2023-06-24T09:51:50;4.95;;;3.60;;
73940;SDS011;62294;48.554;10.202;2023-06-24T09:54:21;5.17;;;3.70;;
73940;SDS011;62294;48.554;10.202;2023-06-24T09:56:50;5.65;;;4.03;;
73940;SDS011;62294;48.554;10.202;2023-06-24T09:59:20;5.65;;;3.78;;
73940;SDS011;62294;48.554;10.202;2023-06-24T10:01:48;5.88;;;3.80;;
73940;SDS011;62294;48.554;10.202;2023-06-24T10:04:18;5.82;;;3.80;;
73940;SDS011;62294;48.554;10.202;2023-06-24T10:06:46;6.20;;;4.07;;
73940;SDS011;62294;48.554;10.202;2023-06-24T10:09:13;7.90;;;3.95;;
73940;SDS011;62294;48.554;10.202;2023-06-24T10:11:46;5.22;;;3.42;;
73940;SDS011;62294;48.554;10.202;2023-06-24T10:14:15;4.68;;;3.13;;
73940;SDS011;62294;48.554;10.202;2023-06-24T10:16:41;5.20;;;3.00;;
73940;SDS011;62294;48.554;10.202;2023-06-24T10:19:09;4.78;;;3.08;;
73940;SDS011;62294;48.554;10.202;2023-06-24T10:24:27;6.57;;;3.45;;
73940;SDS011;62294;48.554;10.202;2023-06-24T10:27:06;5.13;;;3.85;;
73940;SDS011;62294;48.554;10.202;2023-06-24T10:29:35;5.13;;;3.67;;
73940;SDS011;62294;48.554;10.202;2023-06-24T10:32:06;6.22;;;3.72;;
73940;SDS011;62294;48.554;10.202;2023-06-24T10:34:34;6.30;;;3.88;;
73940;SDS011;62294;48.554;10.202;2023-06-24T10:44:48;5.88;;;3.97;;
73940;SDS011;62294;48.554;10.202;2023-06-24T10:47:15;4.47;;;3.28;;
73940;SDS011;62294;48.554;10.202;2023-06-24T10:49:42;5.50;;;3.05;;
73940;SDS011;62294;48.554;10.202;2023-06-24T10:52:09;5.63;;;3.67;;
73940;SDS011;62294;48.554;10.202;2023-06-24T10:54:37;5.45;;;3.63;;
73940;SDS011;62294;48.554;10.202;2023-06-24T10:57:04;6.05;;;3.33;;
73940;SDS011;62294;48.554;10.202;2023-06-24T10:59:34;5.88;;;3.75;;
73940;SDS011;62294;48.554;10.202;2023-06-24T11:02:01;4.97;;;3.60;;
73940;SDS011;62294;48.554;10.202;2023-06-24T11:04:28;4.93;;;3.95;;
73940;SDS011;62294;48.554;10.202;2023-06-24T11:06:58;4.55;;;3.88;;
73940;SDS011;62294;48.554;10.202;2023-06-24T11:09:26;7.80;;;4.00;;
73940;SDS011;62294;48.554;10.202;2023-06-24T11:11:53;5.57;;;3.80;;
73940;SDS011;62294;48.554;10.202;2023-06-24T11:14:20;7.55;;;3.85;;
73940;SDS011;62294;48.554;10.202;2023-06-24T11:16:46;6.50;;;4.22;;
73940;SDS011;62294;48.554;10.202;2023-06-24T11:19:13;6.35;;;3.47;;
73940;SDS011;62294;48.554;10.202;2023-06-24T11:21:40;7.50;;;2.95;;
73940;SDS011;62294;48.554;10.202;2023-06-24T11:24:06;5.88;;;3.20;;
73940;SDS011;62294;48.554;10.202;2023-06-24T11:26:33;5.90;;;3.97;;
73940;SDS011;62294;48.554;10.202;2023-06-24T11:29:00;4.97;;;3.33;;
73940;SDS011;62294;48.554;10.202;2023-06-24T11:31:26;5.32;;;3.28;;
73940;SDS011;62294;48.554;10.202;2023-06-24T11:33:53;5.05;;;3.42;;
73940;SDS011;62294;48.554;10.202;2023-06-24T11:36:20;4.47;;;3.33;;
73940;SDS011;62294;48.554;10.202;2023-06-24T11:38:47;4.63;;;3.63;;
73940;SDS011;62294;48.554;10.202;2023-06-24T11:41:14;4.28;;;3.15;;
73940;SDS011;62294;48.554;10.202;2023-06-24T11:43:44;4.72;;;3.50;;
73940;SDS011;62294;48.554;10.202;2023-06-24T11:46:24;5.03;;;3.58;;
73940;SDS011;62294;48.554;10.202;2023-06-24T11:49:07;8.32;;;4.28;;
73940;SDS011;62294;48.554;10.202;2023-06-24T11:51:35;5.53;;;3.42;;
73940;SDS011;62294;48.554;10.202;2023-06-24T11:54:03;4.93;;;3.55;;
73940;SDS011;62294;48.554;10.202;2023-06-24T11:56:37;7.22;;;3.67;;
73940;SDS011;62294;48.554;10.202;2023-06-24T11:59:06;5.25;;;3.67;;
73940;SDS011;62294;48.554;10.202;2023-06-24T12:01:33;7.05;;;3.45;;
73940;SDS011;62294;48.554;10.202;2023-06-24T12:04:00;4.65;;;3.35;;
73940;SDS011;62294;48.554;10.202;2023-06-24T12:06:28;5.72;;;3.53;;
73940;SDS011;62294;48.554;10.202;2023-06-24T12:08:54;4.90;;;3.08;;
73940;SDS011;62294;48.554;10.202;2023-06-24T12:11:20;4.45;;;3.20;;
73940;SDS011;62294;48.554;10.202;2023-06-24T12:13:48;3.97;;;2.75;;
73940;SDS011;62294;48.554;10.202;2023-06-24T12:16:15;4.00;;;3.20;;
73940;SDS011;62294;48.554;10.202;2023-06-24T12:18:41;5.47;;;3.17;;
73940;SDS011;62294;48.554;10.202;2023-06-24T12:21:08;4.93;;;2.80;;
73940;SDS011;62294;48.554;10.202;2023-06-24T12:23:35;4.65;;;2.42;;
73940;SDS011;62294;48.554;10.202;2023-06-24T12:26:02;5.15;;;3.10;;
73940;SDS011;62294;48.554;10.202;2023-06-24T12:28:28;3.70;;;3.00;;
73940;SDS011;62294;48.554;10.202;2023-06-24T12:30:55;4.47;;;2.88;;
73940;SDS011;62294;48.554;10.202;2023-06-24T12:33:21;4.25;;;2.90;;
73940;SDS011;62294;48.554;10.202;2023-06-24T12:35:49;3.83;;;2.83;;
73940;SDS011;62294;48.554;10.202;2023-06-24T12:38:15;3.65;;;2.78;;
73940;SDS011;62294;48.554;10.202;2023-06-24T12:40:42;3.92;;;2.67;;
73940;SDS011;62294;48.554;10.202;2023-06-24T12:43:09;3.50;;;2.58;;
73940;SDS011;62294;48.554;10.202;2023-06-24T12:45:36;4.28;;;2.40;;
73940;SDS011;62294;48.554;10.202;2023-06-24T12:48:04;4.55;;;2.70;;
73940;SDS011;62294;48.554;10.202;2023-06-24T12:50:31;4.93;;;2.65;;
73940;SDS011;62294;48.554;10.202;2023-06-24T12:52:58;3.58;;;2.60;;
73940;SDS011;62294;48.554;10.202;2023-06-24T12:55:25;4.05;;;2.55;;
73940;SDS011;62294;48.554;10.202;2023-06-24T12:57:52;3.38;;;2.67;;
73940;SDS011;62294;48.554;10.202;2023-06-24T13:00:22;3.38;;;2.42;;
73940;SDS011;62294;48.554;10.202;2023-06-24T13:02:50;4.50;;;3.17;;
73940;SDS011;62294;48.554;10.202;2023-06-24T13:05:17;3.78;;;2.53;;
73940;SDS011;62294;48.554;10.202;2023-06-24T13:07:44;4.80;;;2.80;;
73940;SDS011;62294;48.554;10.202;2023-06-24T13:10:11;4.03;;;2.45;;
73940;SDS011;62294;48.554;10.202;2023-06-24T13:12:37;6.20;;;3.03;;
73940;SDS011;62294;48.554;10.202;2023-06-24T13:15:05;3.55;;;2.53;;
73940;SDS011;62294;48.554;10.202;2023-06-24T13:17:32;5.05;;;3.03;;
73940;SDS011;62294;48.554;10.202;2023-06-24T13:19:59;3.85;;;2.50;;
73940;SDS011;62294;48.554;10.202;2023-06-24T13:22:25;4.30;;;2.67;;
73940;SDS011;62294;48.554;10.202;2023-06-24T13:24:52;4.57;;;2.80;;
73940;SDS011;62294;48.554;10.202;2023-06-24T13:27:19;4.78;;;2.60;;
73940;SDS011;62294;48.554;10.202;2023-06-24T13:29:45;4.22;;;2.80;;
73940;SDS011;62294;48.554;10.202;2023-06-24T13:32:12;3.47;;;2.72;;
73940;SDS011;62294;48.554;10.202;2023-06-24T13:34:38;3.55;;;2.45;;
73940;SDS011;62294;48.554;10.202;2023-06-24T13:37:05;5.47;;;2.63;;
73940;SDS011;62294;48.554;10.202;2023-06-24T13:39:32;5.15;;;3.92;;
73940;SDS011;62294;48.554;10.202;2023-06-24T13:41:59;3.97;;;2.83;;
73940;SDS011;62294;48.554;10.202;2023-06-24T13:44:26;5.53;;;3.05;;
73940;SDS011;62294;48.554;10.202;2023-06-24T13:46:53;3.90;;;2.83;;
73940;SDS011;62294;48.554;10.202;2023-06-24T13:49:20;4.68;;;3.08;;
73940;SDS011;62294;48.554;10.202;2023-06-24T13:51:47;5.38;;;3.33;;
73940;SDS011;62294;48.554;10.202;2023-06-24T13:54:13;12.43;;;3.97;;
73940;SDS011;62294;48.554;10.202;2023-06-24T13:56:40;3.78;;;2.85;;
73940;SDS011;62294;48.554;10.202;2023-06-24T13:59:07;4.78;;;3.38;;
73940;SDS011;62294;48.554;10.202;2023-06-24T14:01:33;3.80;;;2.60;;
73940;SDS011;62294;48.554;10.202;2023-06-24T14:04:00;3.60;;;2.67;;
73940;SDS011;62294;48.554;10.202;2023-06-24T14:06:26;3.83;;;2.85;;
73940;SDS011;62294;48.554;10.202;2023-06-24T14:08:53;3.95;;;2.78;;
73940;SDS011;62294;48.554;10.202;2023-06-24T14:11:20;4.82;;;2.85;;
73940;SDS011;62294;48.554;10.202;2023-06-24T14:13:47;4.45;;;2.92;;
73940;SDS011;62294;48.554;10.202;2023-06-24T14:16:13;3.65;;;2.25;;
73940;SDS011;62294;48.554;10.202;2023-06-24T14:18:40;4.43;;;2.80;;
73940;SDS011;62294;48.554;10.202;2023-06-24T14:21:07;3.15;;;2.22;;
73940;SDS011;62294;48.554;10.202;2023-06-24T14:23:34;3.40;;;2.42;;
73940;SDS011;62294;48.554;10.202;2023-06-24T14:26:01;3.72;;;2.45;;
73940;SDS011;62294;48.554;10.202;2023-06-24T14:28:29;3.03;;;2.42;;
73940;SDS011;62294;48.554;10.202;2023-06-24T14:30:56;4.30;;;2.33;;
73940;SDS011;62294;48.554;10.202;2023-06-24T14:33:22;4.47;;;2.58;;
73940;SDS011;62294;48.554;10.202;2023-06-24T14:35:49;4.40;;;2.70;;
73940;SDS011;62294;48.554;10.202;2023-06-24T14:38:17;3.78;;;2.75;;
73940;SDS011;62294;48.554;10.202;2023-06-24T14:40:43;3.92;;;2.33;;
73940;SDS011;62294;48.554;10.202;2023-06-24T14:43:10;5.47;;;2.72;;
73940;SDS011;62294;48.554;10.202;2023-06-24T14:45:37;3.80;;;2.60;;
73940;SDS011;62294;48.554;10.202;2023-06-24T14:48:03;5.32;;;2.90;;
73940;SDS011;62294;48.554;10.202;2023-06-24T14:50:30;3.38;;;2.40;;
73940;SDS011;62294;48.554;10.202;2023-06-24T14:52:56;3.90;;;2.45;;
73940;SDS011;62294;48.554;10.202;2023-06-24T14:55:23;3.28;;;2.40;;
73940;SDS011;62294;48.554;10.202;2023-06-24T14:57:50;3.92;;;2.75;;
73940;SDS011;62294;48.554;10.202;2023-06-24T15:00:16;4.50;;;2.70;;